createdAt,value
2022-12-25T00:01:42.280Z,24.10
2022-12-25T00:04:09.151Z,24.10
2022-12-25T00:06:35.992Z,24.10
2022-12-25T00:09:02.751Z,24.10
2022-12-25T00:11:29.479Z,24.10
2022-12-25T00:13:56.467Z,24.10
2022-12-25T00:16:24.355Z,24.10
2022-12-25T00:18:51.872Z,24.10
2022-12-25T00:21:19.913Z,24.10
2022-12-25T00:23:46.983Z,24.10
2022-12-25T00:26:17.739Z,24.10
2022-12-25T00:28:44.722Z,24.10
2022-12-25T00:31:13.583Z,24.10
2022-12-25T00:33:41.330Z,24.10
2022-12-25T00:36:08.358Z,24.10
2022-12-25T00:38:35.808Z,24.10
2022-12-25T00:41:06.274Z,24.10
2022-12-25T00:43:33.073Z,24.10
2022-12-25T00:46:01.802Z,24.10
2022-12-25T00:48:29.321Z,24.10
2022-12-25T00:50:56.685Z,24.10
2022-12-25T00:53:24.099Z,24.10
2022-12-25T00:55:54.810Z,24.10
2022-12-25T00:58:22.103Z,24.10
2022-12-25T01:00:49.348Z,24.10
2022-12-25T01:03:16.396Z,24.10
2022-12-25T01:05:43.688Z,24.10
2022-12-25T01:08:10.704Z,24.10
2022-12-25T01:10:37.449Z,24.10
2022-12-25T01:13:04.207Z,24.20
2022-12-25T01:15:30.959Z,24.10
2022-12-25T01:17:57.664Z,24.10
2022-12-25T01:20:24.432Z,24.10
2022-12-25T01:22:51.159Z,24.10
2022-12-25T01:25:17.856Z,24.20
2022-12-25T04:12:02.552Z,24.20
2022-12-25T04:14:48.268Z,24.30
2022-12-25T04:17:33.539Z,24.30
2022-12-25T04:20:18.722Z,24.30
2022-12-25T04:23:03.926Z,24.20
2022-12-25T04:25:49.059Z,24.30
2022-12-25T04:28:34.543Z,24.30
2022-12-25T04:31:20.353Z,24.30
2022-12-25T04:34:05.937Z,24.30
2022-12-25T04:36:32.738Z,24.30
2022-12-25T04:38:59.456Z,24.30
2022-12-25T04:41:26.272Z,24.30
2022-12-25T04:43:53.034Z,24.30
2022-12-25T04:46:19.851Z,24.30
2022-12-25T04:48:46.612Z,24.30
2022-12-25T04:51:20.660Z,24.30
2022-12-25T04:53:48.301Z,24.30
2022-12-25T04:56:15.411Z,24.30
2022-12-25T04:58:42.688Z,24.30
2022-12-25T05:01:09.449Z,24.30
2022-12-25T05:03:36.557Z,24.30
2022-12-25T05:06:03.819Z,24.30
2022-12-25T05:08:31.713Z,24.30
2022-12-25T05:10:58.596Z,24.30
2022-12-25T05:13:25.465Z,24.30
2022-12-25T05:15:52.577Z,24.30
2022-12-25T05:18:19.489Z,24.30
2022-12-25T05:20:55.468Z,24.30
2022-12-25T05:23:23.503Z,24.30
2022-12-25T05:25:50.241Z,24.30
2022-12-25T05:28:17.080Z,24.30
2022-12-25T05:30:43.792Z,24.30
2022-12-25T05:33:10.496Z,24.30
2022-12-25T05:35:37.924Z,24.30
2022-12-25T05:38:05.402Z,24.30
2022-12-25T05:40:32.284Z,24.30
2022-12-25T05:42:59.011Z,24.30
2022-12-25T05:45:25.777Z,24.30
2022-12-25T05:47:52.711Z,24.30
2022-12-25T05:50:19.408Z,24.30
2022-12-25T05:52:46.145Z,24.30
2022-12-25T05:55:12.870Z,24.30
2022-12-25T05:57:39.595Z,24.30
2022-12-25T06:00:06.619Z,24.30
2022-12-25T06:02:34.891Z,24.30
2022-12-25T06:05:02.139Z,24.30
2022-12-25T06:07:28.943Z,24.30
2022-12-25T06:09:55.665Z,24.30
2022-12-25T06:12:22.419Z,24.30
2022-12-25T06:14:49.142Z,24.30
2022-12-25T06:17:15.837Z,24.30
2022-12-25T06:19:42.848Z,24.30
2022-12-25T06:22:09.579Z,24.30
2022-12-25T06:24:36.402Z,24.30
2022-12-25T06:27:03.163Z,24.30
2022-12-25T06:29:29.858Z,24.30
2022-12-25T06:31:57.603Z,24.30
2022-12-25T06:34:24.522Z,24.30
2022-12-25T06:36:51.292Z,24.30
2022-12-25T06:39:18.079Z,24.30
2022-12-25T06:41:44.797Z,24.30
2022-12-25T06:44:11.509Z,24.20
2022-12-25T06:46:38.304Z,24.20
2022-12-25T06:49:05.345Z,24.20
2022-12-25T06:51:32.462Z,24.20
2022-12-25T06:53:59.832Z,24.20
2022-12-25T06:56:27.500Z,24.20
2022-12-25T06:58:55.750Z,24.20
2022-12-25T07:01:27.091Z,24.20
2022-12-25T07:03:55.964Z,24.20
2022-12-25T07:06:22.768Z,24.20
2022-12-25T07:08:50.081Z,24.20
2022-12-25T07:11:16.821Z,24.20
2022-12-25T07:13:43.583Z,24.20
2022-12-25T07:16:11.236Z,24.20
2022-12-25T07:18:38.025Z,24.20
2022-12-25T07:21:08.824Z,24.20
2022-12-25T07:23:35.851Z,24.20
2022-12-25T07:26:02.778Z,24.20
2022-12-25T07:28:30.325Z,24.20
2022-12-25T07:31:23.612Z,24.20
2022-12-25T07:33:52.625Z,24.20
2022-12-25T07:36:19.326Z,24.20
2022-12-25T07:38:48.676Z,24.20
2022-12-25T07:41:15.418Z,24.20
2022-12-25T07:43:42.504Z,24.20
2022-12-25T07:46:09.660Z,24.20
2022-12-25T07:48:36.533Z,24.20
2022-12-25T07:51:05.592Z,24.20
2022-12-25T07:53:32.372Z,24.20
2022-12-25T07:56:00.134Z,24.20
2022-12-25T07:58:27.234Z,24.30
2022-12-25T08:00:54.120Z,24.20
2022-12-25T08:03:21.197Z,24.20
2022-12-25T08:05:48.171Z,24.20
2022-12-25T08:08:14.898Z,24.20
2022-12-25T08:10:44.956Z,24.20
2022-12-25T08:13:14.616Z,24.20
2022-12-25T08:15:41.708Z,24.20
2022-12-25T08:18:08.481Z,24.20
2022-12-25T08:20:35.422Z,24.20
2022-12-25T08:23:02.273Z,24.20
2022-12-25T08:25:29.082Z,24.10
2022-12-25T08:27:55.947Z,24.10
2022-12-25T08:30:22.701Z,24.10
2022-12-25T08:32:49.439Z,24.20
2022-12-25T08:35:16.252Z,24.20
2022-12-25T08:37:43.039Z,24.20
2022-12-25T08:40:10.023Z,24.20
2022-12-25T08:42:36.961Z,24.20
2022-12-25T08:45:03.965Z,24.20
2022-12-25T08:47:30.740Z,24.20
2022-12-25T08:49:57.447Z,24.20
2022-12-25T08:52:24.282Z,24.20
2022-12-25T08:54:51.029Z,24.20
2022-12-25T08:57:17.870Z,24.20
2022-12-25T08:59:44.678Z,24.20
2022-12-25T09:02:12.483Z,24.20
2022-12-25T09:04:39.347Z,24.20
2022-12-25T09:07:06.096Z,24.20
2022-12-25T09:09:32.836Z,24.30
2022-12-25T09:11:59.556Z,24.30
2022-12-25T09:14:26.270Z,24.30
2022-12-25T09:16:52.977Z,24.20
2022-12-25T09:19:19.831Z,24.20
2022-12-25T09:21:46.526Z,24.20
2022-12-25T09:24:13.276Z,24.20
2022-12-25T09:26:40.075Z,24.20
2022-12-25T09:29:06.811Z,24.20
2022-12-25T09:31:33.713Z,24.10
2022-12-25T09:34:00.459Z,24.10
2022-12-25T09:36:27.468Z,24.10
2022-12-25T09:38:54.219Z,24.10
2022-12-25T09:41:27.213Z,24.10
2022-12-25T09:44:06.070Z,24.10
2022-12-25T09:46:40.859Z,24.10
2022-12-25T09:49:14.255Z,24.10
2022-12-25T09:51:42.572Z,24.10
2022-12-25T09:54:12.512Z,24.10
2022-12-25T09:56:39.492Z,24.10
2022-12-25T09:59:15.768Z,24.10
2022-12-25T10:01:58.163Z,24.10
2022-12-25T10:04:24.937Z,24.10
2022-12-25T10:06:51.597Z,24.10
2022-12-25T10:09:27.275Z,24.10
2022-12-25T10:12:00.233Z,24.10
2022-12-25T10:14:58.111Z,24.10
2022-12-25T10:17:43.516Z,24.10
2022-12-25T10:25:04.710Z,24.30
2022-12-25T10:27:36.435Z,24.20
2022-12-25T10:30:06.594Z,24.20
2022-12-25T10:32:33.715Z,24.10
2022-12-25T10:35:01.000Z,24.20
2022-12-25T10:37:27.796Z,24.20
2022-12-25T10:39:54.505Z,24.10
2022-12-25T10:42:24.171Z,24.10
2022-12-25T10:45:09.449Z,24.10
2022-12-25T10:47:38.601Z,24.10
2022-12-25T10:50:10.056Z,24.10
2022-12-25T10:52:46.418Z,24.10
2022-12-25T10:55:13.468Z,24.10
2022-12-25T10:57:46.453Z,24.10
2022-12-25T11:00:20.041Z,24.00
2022-12-25T11:02:47.057Z,24.00
2022-12-25T11:05:21.123Z,24.00
2022-12-25T11:07:54.293Z,24.00
2022-12-25T11:10:44.146Z,24.00
2022-12-25T11:13:40.763Z,24.00
2022-12-25T11:16:12.208Z,24.00
2022-12-25T11:18:46.883Z,24.00
2022-12-25T11:21:18.163Z,24.00
2022-12-25T11:23:49.424Z,24.00
2022-12-25T11:26:17.078Z,24.00
2022-12-25T11:28:44.958Z,24.00
2022-12-25T11:31:14.004Z,24.00
2022-12-25T11:33:52.548Z,24.00
2022-12-25T11:36:51.565Z,24.00
2022-12-25T11:39:18.265Z,24.00
2022-12-25T11:41:46.462Z,24.00
2022-12-25T11:44:23.117Z,24.00
2022-12-25T11:46:52.255Z,24.00
2022-12-25T11:49:19.991Z,24.00
2022-12-25T11:51:49.170Z,24.00
2022-12-25T11:54:25.457Z,24.00
2022-12-25T11:56:52.362Z,24.00
2022-12-25T11:59:22.754Z,24.00
2022-12-25T12:01:54.969Z,24.00
2022-12-25T12:04:29.617Z,24.00
2022-12-25T12:07:04.531Z,24.00
2022-12-25T12:09:31.273Z,23.90
2022-12-25T12:12:08.673Z,24.00
2022-12-25T12:14:57.824Z,24.00
2022-12-25T12:17:24.583Z,23.90
2022-12-25T12:19:52.690Z,23.90
2022-12-25T12:22:23.914Z,23.90
2022-12-25T12:24:54.328Z,23.90
2022-12-25T12:27:36.099Z,23.90
2022-12-25T12:30:03.301Z,23.90
2022-12-25T12:32:40.926Z,23.90
2022-12-25T12:35:10.303Z,24.00
2022-12-25T12:37:38.432Z,24.00
2022-12-25T12:40:07.486Z,24.00
2022-12-25T12:42:45.213Z,24.00
2022-12-25T12:45:26.867Z,23.90
2022-12-25T12:47:53.801Z,23.90
2022-12-25T12:50:26.312Z,23.90
2022-12-25T12:52:53.158Z,23.90
2022-12-25T12:55:28.417Z,23.90
2022-12-25T12:57:59.192Z,23.90
2022-12-25T13:00:26.988Z,23.90
2022-12-25T13:03:08.971Z,23.90
2022-12-25T13:06:01.009Z,23.90
2022-12-25T13:08:39.960Z,23.90
2022-12-25T13:11:19.646Z,23.90
2022-12-25T13:13:47.130Z,23.90
2022-12-25T13:16:21.891Z,23.90
2022-12-25T13:18:50.766Z,23.90
2022-12-25T13:21:19.544Z,23.90
2022-12-25T13:23:46.313Z,23.90
2022-12-25T13:26:14.842Z,23.90
2022-12-25T13:28:41.678Z,23.90
2022-12-25T13:31:11.240Z,23.90
2022-12-25T13:33:38.330Z,23.90
2022-12-25T13:36:09.729Z,23.90
2022-12-25T13:38:36.546Z,23.90
2022-12-25T13:41:21.682Z,23.90
2022-12-25T13:43:48.880Z,23.90
2022-12-25T13:46:15.928Z,23.90
2022-12-25T13:48:42.903Z,23.90
2022-12-25T13:51:14.287Z,23.90
2022-12-25T13:53:41.030Z,23.90
2022-12-25T13:56:12.572Z,23.90
2022-12-25T13:58:39.761Z,23.90
2022-12-25T14:01:06.733Z,23.90
2022-12-25T14:03:36.030Z,23.90
2022-12-25T14:06:04.428Z,23.90
2022-12-25T14:08:33.736Z,23.90
2022-12-25T14:11:03.715Z,23.90
2022-12-25T14:13:31.429Z,23.90
2022-12-25T14:15:58.848Z,23.90
2022-12-25T14:18:25.723Z,23.90
2022-12-25T14:21:01.729Z,23.90
2022-12-25T14:23:31.662Z,23.90
2022-12-25T14:25:58.463Z,23.90
2022-12-25T14:28:27.147Z,23.90
2022-12-25T14:30:54.550Z,23.90
2022-12-25T14:33:22.997Z,23.90
2022-12-25T14:35:50.287Z,23.90
2022-12-25T14:38:27.826Z,23.90
2022-12-25T14:41:22.668Z,23.90
2022-12-25T14:43:53.795Z,23.90
2022-12-25T14:46:28.163Z,23.90
2022-12-25T14:49:02.172Z,23.90
2022-12-25T14:51:30.019Z,23.90
2022-12-25T14:53:57.675Z,23.90
2022-12-25T14:56:25.959Z,23.90
2022-12-25T14:58:54.752Z,24.00
2022-12-25T15:01:21.682Z,23.90
2022-12-25T15:03:49.334Z,23.90
2022-12-25T15:06:20.908Z,23.90
2022-12-25T15:08:56.709Z,23.90
2022-12-25T15:11:23.539Z,23.90
2022-12-25T15:13:50.292Z,23.90
2022-12-25T15:16:19.781Z,23.90
2022-12-25T15:18:46.949Z,23.90
2022-12-25T15:21:19.727Z,23.90
2022-12-25T15:23:46.720Z,23.90
2022-12-25T15:26:13.947Z,23.80
2022-12-25T15:28:40.699Z,23.90
2022-12-25T15:31:22.190Z,23.80
2022-12-25T15:33:49.830Z,23.80
2022-12-25T15:36:16.659Z,23.80
2022-12-25T15:38:43.769Z,23.80
2022-12-25T15:41:32.546Z,23.80
2022-12-25T15:43:59.372Z,23.80
2022-12-25T15:46:26.836Z,23.90
2022-12-25T15:48:53.707Z,23.90
2022-12-25T15:51:20.520Z,23.90
2022-12-25T15:53:47.270Z,23.90
2022-12-25T15:56:14.412Z,23.80
2022-12-25T15:58:41.227Z,23.80
2022-12-25T16:01:10.461Z,23.80
2022-12-25T16:03:37.325Z,23.80
2022-12-25T16:06:04.140Z,23.80
2022-12-25T16:08:30.930Z,23.70
2022-12-25T16:10:57.887Z,23.70
2022-12-25T16:13:24.637Z,23.70
2022-12-25T16:15:51.622Z,23.70
2022-12-25T16:18:18.364Z,23.70
2022-12-25T16:20:45.216Z,23.70
2022-12-25T16:23:11.968Z,23.70
2022-12-25T16:25:38.667Z,23.70
2022-12-25T16:28:06.231Z,23.70
2022-12-25T16:30:32.979Z,23.70
2022-12-25T16:32:59.719Z,23.70
2022-12-25T16:35:26.467Z,23.60
2022-12-25T16:37:53.268Z,23.70
2022-12-25T16:40:20.325Z,23.60
2022-12-25T16:42:47.097Z,23.70
2022-12-25T16:45:13.849Z,23.60
2022-12-25T16:47:40.597Z,23.60
2022-12-25T16:50:07.597Z,23.70
2022-12-25T16:52:34.821Z,23.70
2022-12-25T16:55:02.130Z,23.60
2022-12-25T16:57:28.893Z,23.60
2022-12-25T16:59:55.602Z,23.60
2022-12-25T17:02:22.604Z,23.60
2022-12-25T17:04:49.487Z,23.60
2022-12-25T17:07:16.897Z,23.60
2022-12-25T17:09:46.724Z,23.60
2022-12-25T17:12:13.567Z,23.60
2022-12-25T17:14:40.352Z,23.60
2022-12-25T17:17:07.160Z,23.60
2022-12-25T17:19:33.988Z,23.60
2022-12-25T17:22:00.975Z,23.60
2022-12-25T17:24:28.849Z,23.60
2022-12-25T17:26:55.690Z,23.60
2022-12-25T17:29:23.075Z,23.60
2022-12-25T17:34:20.277Z,23.60
2022-12-25T17:36:47.302Z,23.70
2022-12-25T17:39:14.073Z,23.60
2022-12-25T17:41:40.808Z,23.70
2022-12-25T17:44:07.581Z,23.70
2022-12-25T17:46:34.363Z,23.60
2022-12-25T17:49:01.504Z,23.70
2022-12-25T17:53:59.687Z,23.70
2022-12-25T17:56:26.424Z,23.70
2022-12-25T17:58:54.601Z,23.70
2022-12-25T18:01:22.534Z,23.70
2022-12-25T18:03:50.202Z,23.70
2022-12-25T18:06:19.317Z,23.70
2022-12-25T18:08:46.728Z,23.70
2022-12-25T18:11:15.440Z,23.60
2022-12-25T18:13:45.133Z,23.70
2022-12-25T18:16:12.895Z,23.60
2022-12-25T18:18:40.005Z,23.60
2022-12-25T18:21:07.302Z,23.60
2022-12-25T18:23:34.672Z,23.70
2022-12-25T18:26:04.972Z,23.60
2022-12-25T18:28:32.319Z,23.60
2022-12-25T18:30:59.302Z,23.60
2022-12-25T18:33:26.175Z,23.60
2022-12-25T18:36:00.071Z,23.60
2022-12-25T18:38:27.618Z,23.60
2022-12-25T18:40:54.512Z,23.60
2022-12-25T18:43:21.266Z,23.60
2022-12-25T18:46:08.135Z,23.60
2022-12-25T18:48:35.611Z,23.60
2022-12-25T18:51:04.108Z,23.60
2022-12-25T18:53:31.096Z,23.60
2022-12-25T18:55:58.785Z,23.60
2022-12-25T18:58:26.304Z,23.60
2022-12-25T19:00:53.135Z,23.60
2022-12-25T19:03:20.149Z,23.60
2022-12-25T19:05:47.101Z,23.60
2022-12-25T19:08:14.215Z,23.60
2022-12-25T19:10:41.385Z,23.60
2022-12-25T19:13:08.646Z,23.60
2022-12-25T19:15:35.939Z,23.60
2022-12-25T19:18:02.792Z,23.60
2022-12-25T19:20:29.501Z,23.60
2022-12-25T19:22:56.279Z,23.60
2022-12-25T19:25:23.015Z,23.60
2022-12-25T19:27:49.938Z,23.60
2022-12-25T19:30:16.722Z,23.60
2022-12-25T19:32:43.407Z,23.60
2022-12-25T19:35:10.129Z,23.60
2022-12-25T19:37:36.888Z,23.60
2022-12-25T19:40:04.125Z,23.60
2022-12-25T19:42:30.993Z,23.60
2022-12-25T19:44:57.759Z,23.60
2022-12-25T19:47:24.587Z,23.60
2022-12-25T19:49:53.377Z,23.60
2022-12-25T19:52:20.695Z,23.60
2022-12-25T19:54:50.576Z,23.60
2022-12-25T19:57:17.301Z,23.60
2022-12-25T19:59:44.112Z,23.60
2022-12-25T20:02:11.375Z,23.60
2022-12-25T20:04:38.258Z,23.60
2022-12-25T20:07:04.999Z,23.60
2022-12-25T20:09:32.775Z,23.60
2022-12-25T20:11:59.491Z,23.60
2022-12-25T20:14:26.295Z,23.60
2022-12-25T20:16:53.228Z,23.60
2022-12-25T20:19:19.956Z,23.60
2022-12-25T20:21:46.671Z,23.60
2022-12-25T20:24:13.544Z,23.60
2022-12-25T20:26:40.370Z,23.60
2022-12-25T20:29:07.321Z,23.60
2022-12-25T20:31:34.961Z,23.60
2022-12-25T20:34:06.915Z,23.70
2022-12-25T20:36:37.129Z,23.70
2022-12-25T20:39:05.362Z,23.70
2022-12-25T20:41:32.318Z,23.70
2022-12-25T20:43:59.107Z,23.70
2022-12-25T20:46:27.027Z,23.70
2022-12-25T20:48:53.985Z,23.70
2022-12-25T20:51:22.036Z,23.70
2022-12-25T20:53:48.863Z,23.70
2022-12-25T20:56:17.060Z,23.70
2022-12-25T20:58:43.867Z,23.70
2022-12-25T21:01:15.821Z,23.70
2022-12-25T21:03:43.153Z,23.70
2022-12-25T21:06:10.138Z,23.70
2022-12-25T21:08:37.524Z,23.70
2022-12-25T21:11:04.666Z,23.70
2022-12-25T21:13:32.990Z,23.70
2022-12-25T21:15:59.820Z,23.70
2022-12-25T21:18:28.863Z,23.70
2022-12-25T21:20:56.750Z,23.70
2022-12-25T21:23:24.186Z,23.70
2022-12-25T21:25:51.102Z,23.60
2022-12-25T21:28:17.898Z,23.70
2022-12-25T21:30:44.713Z,23.60
2022-12-25T21:33:31.028Z,23.70
2022-12-25T21:36:05.178Z,23.70
2022-12-25T21:38:31.900Z,23.70
2022-12-25T21:41:02.385Z,23.70
2022-12-25T21:43:29.160Z,23.70
2022-12-25T21:45:55.924Z,23.70
2022-12-25T21:48:22.683Z,23.70
2022-12-25T21:51:08.342Z,23.70
2022-12-25T21:53:35.146Z,23.70
2022-12-25T21:56:02.565Z,23.70
2022-12-25T21:58:29.431Z,23.70
2022-12-25T22:00:56.210Z,23.70
2022-12-25T22:03:23.685Z,23.70
2022-12-25T22:06:09.138Z,23.70
2022-12-25T22:08:35.898Z,23.70
2022-12-25T22:11:03.241Z,23.70
2022-12-25T22:13:48.850Z,23.70
2022-12-25T22:16:34.389Z,23.70
2022-12-25T22:19:20.147Z,23.70
2022-12-25T22:21:46.948Z,23.70
2022-12-25T22:24:13.661Z,23.70
2022-12-25T22:26:40.389Z,23.70
2022-12-25T22:29:07.148Z,23.70
2022-12-25T22:31:33.926Z,23.70
2022-12-25T22:34:00.721Z,23.70
2022-12-25T22:36:27.516Z,23.70
2022-12-25T22:38:54.297Z,23.70
2022-12-25T22:41:21.058Z,23.70
2022-12-25T22:46:34.654Z,23.70
2022-12-25T22:49:01.412Z,23.70
2022-12-25T22:51:28.302Z,23.70
2022-12-25T22:53:58.799Z,23.70
2022-12-25T22:56:30.137Z,23.70
2022-12-25T22:58:57.059Z,23.60
2022-12-25T23:01:33.430Z,23.70
2022-12-25T23:04:00.412Z,23.60
2022-12-25T23:06:27.212Z,23.70
2022-12-25T23:08:53.937Z,23.70
2022-12-25T23:11:21.030Z,23.60
2022-12-25T23:14:06.446Z,23.60
2022-12-25T23:16:33.259Z,23.60
2022-12-25T23:19:18.696Z,23.60
2022-12-25T23:22:03.966Z,23.70
2022-12-25T23:24:49.353Z,23.70
2022-12-25T23:27:16.106Z,23.70
2022-12-25T23:29:42.859Z,23.70
2022-12-25T23:32:11.121Z,23.70
2022-12-25T23:34:39.159Z,23.80
2022-12-25T23:37:06.388Z,23.80
2022-12-25T23:39:33.287Z,23.80
2022-12-25T23:42:00.294Z,23.80
2022-12-25T23:44:27.514Z,23.80
2022-12-25T23:46:54.631Z,23.80
2022-12-25T23:49:24.683Z,23.70
2022-12-25T23:51:51.823Z,23.70
2022-12-25T23:54:19.998Z,23.70
2022-12-25T23:56:46.751Z,23.70
2022-12-25T23:59:14.145Z,23.70
